CYYJ

Victoria International Airport

Victoria, , Canada
METAR CYYJ 172100Z 13010G17KT 8SM -RA FEW007 SCT012 BKN024 OVC078 08/07 A2996 RMK SF1SC3SC2AC2 SLP147
Observed Flight Rules
Dec-17 @ 21:00 UTC (28 minutes ago) Marginal Visual Flight Rules
Wind Visibility Clouds Conditions
130° at 10 knots
 Gusting to 17 knots
8 miles
  • Few at 700' AGL
  • Scattered at 1,200' AGL
  • Broken at 2,400' AGL
  • Overcast at 7,800' AGL
  • Light Rain
Temperatures Readings
Current 8°C / 46°F
Dewpoint 7°C / 45°F
Humidity 93%
Altimeter 29.96" Hg
Pressure 1014.7 hPa
Elevation 19
METAR CYYJ 172100Z 13010G17KT 8SM -RA FEW007 SCT012 BKN024 OVC078 08/07 A2996 RMK SF1SC3SC2AC2 SLP147
Observed Flight Rules
Dec-17 @ 21:00 UTC
(28 minutes ago)
MVFR
Wind Visibility
130° at 10 knots
 Gusting to 17 knots
8 miles
Clouds
  • Few at 700' AGL
  • Scattered at 1,200' AGL
  • Broken at 2,400' AGL
  • Overcast at 7,800' AGL
Conditions
  • Light Rain
Temperature Dewpoint
8°C / 46°F 7°C / 45°F
Humidity Altimeter Pressure
93% 29.96" Hg 1014.7 hPa